sensor_id;sensor_type;location;lat;lon;timestamp;P1;durP1;ratioP1;P2;durP2;ratioP2
37859;SDS011;23698;52.014;5.190;2023-03-26T00:01:26;21.17;;;3.20;;
37859;SDS011;23698;52.014;5.190;2023-03-26T00:04:13;26.90;;;3.83;;
37859;SDS011;23698;52.014;5.190;2023-03-26T00:07:07;21.50;;;4.30;;
37859;SDS011;23698;52.014;5.190;2023-03-26T00:09:54;22.50;;;4.07;;
37859;SDS011;23698;52.014;5.190;2023-03-26T00:12:42;28.58;;;3.78;;
37859;SDS011;23698;52.014;5.190;2023-03-26T00:15:28;18.40;;;3.53;;
37859;SDS011;23698;52.014;5.190;2023-03-26T00:18:14;30.90;;;4.35;;
37859;SDS011;23698;52.014;5.190;2023-03-26T00:21:04;20.58;;;3.97;;
37859;SDS011;23698;52.014;5.190;2023-03-26T00:23:53;35.20;;;5.15;;
37859;SDS011;23698;52.014;5.190;2023-03-26T00:26:39;25.70;;;4.70;;
37859;SDS011;23698;52.014;5.190;2023-03-26T00:29:26;32.38;;;5.13;;
37859;SDS011;23698;52.014;5.190;2023-03-26T00:32:12;30.27;;;4.70;;
37859;SDS011;23698;52.014;5.190;2023-03-26T00:34:59;40.95;;;5.45;;
37859;SDS011;23698;52.014;5.190;2023-03-26T00:37:46;41.63;;;7.50;;
37859;SDS011;23698;52.014;5.190;2023-03-26T00:40:37;44.93;;;5.63;;
37859;SDS011;23698;52.014;5.190;2023-03-26T00:43:28;43.03;;;6.38;;
37859;SDS011;23698;52.014;5.190;2023-03-26T00:46:16;50.25;;;6.00;;
37859;SDS011;23698;52.014;5.190;2023-03-26T00:49:03;64.28;;;7.50;;
37859;SDS011;23698;52.014;5.190;2023-03-26T00:51:55;67.97;;;8.07;;
37859;SDS011;23698;52.014;5.190;2023-03-26T00:54:41;55.85;;;8.00;;
37859;SDS011;23698;52.014;5.190;2023-03-26T00:57:29;59.22;;;8.40;;
37859;SDS011;23698;52.014;5.190;2023-03-26T01:00:20;70.97;;;8.85;;
37859;SDS011;23698;52.014;5.190;2023-03-26T01:03:15;68.63;;;7.80;;
37859;SDS011;23698;52.014;5.190;2023-03-26T01:06:13;75.78;;;8.55;;
37859;SDS011;23698;52.014;5.190;2023-03-26T01:09:08;63.35;;;8.05;;
37859;SDS011;23698;52.014;5.190;2023-03-26T01:11:59;58.92;;;9.00;;
37859;SDS011;23698;52.014;5.190;2023-03-26T01:14:49;58.03;;;7.68;;
37859;SDS011;23698;52.014;5.190;2023-03-26T01:17:36;65.55;;;9.40;;
37859;SDS011;23698;52.014;5.190;2023-03-26T01:20:23;59.30;;;8.20;;
37859;SDS011;23698;52.014;5.190;2023-03-26T01:23:15;70.93;;;7.30;;
37859;SDS011;23698;52.014;5.190;2023-03-26T01:26:26;54.72;;;7.13;;
37859;SDS011;23698;52.014;5.190;2023-03-26T01:29:27;54.78;;;8.23;;
37859;SDS011;23698;52.014;5.190;2023-03-26T01:32:19;73.78;;;8.63;;
37859;SDS011;23698;52.014;5.190;2023-03-26T01:35:16;63.00;;;8.32;;
37859;SDS011;23698;52.014;5.190;2023-03-26T01:38:17;61.17;;;7.68;;
37859;SDS011;23698;52.014;5.190;2023-03-26T01:41:13;65.80;;;8.73;;
37859;SDS011;23698;52.014;5.190;2023-03-26T01:44:08;52.25;;;8.52;;
37859;SDS011;23698;52.014;5.190;2023-03-26T01:47:00;69.68;;;9.95;;
37859;SDS011;23698;52.014;5.190;2023-03-26T01:49:46;53.55;;;8.00;;
37859;SDS011;23698;52.014;5.190;2023-03-26T01:52:33;58.53;;;6.97;;
37859;SDS011;23698;52.014;5.190;2023-03-26T01:55:19;57.90;;;7.05;;
37859;SDS011;23698;52.014;5.190;2023-03-26T01:58:11;52.03;;;7.50;;
37859;SDS011;23698;52.014;5.190;2023-03-26T02:01:14;50.35;;;7.63;;
37859;SDS011;23698;52.014;5.190;2023-03-26T02:04:13;55.95;;;6.68;;
37859;SDS011;23698;52.014;5.190;2023-03-26T02:07:07;48.13;;;6.82;;
37859;SDS011;23698;52.014;5.190;2023-03-26T02:10:02;47.15;;;8.00;;
37859;SDS011;23698;52.014;5.190;2023-03-26T02:12:56;58.50;;;7.85;;
37859;SDS011;23698;52.014;5.190;2023-03-26T02:15:53;54.33;;;7.05;;
37859;SDS011;23698;52.014;5.190;2023-03-26T02:18:42;49.05;;;8.07;;
37859;SDS011;23698;52.014;5.190;2023-03-26T02:21:29;40.92;;;6.97;;
37859;SDS011;23698;52.014;5.190;2023-03-26T02:24:18;56.30;;;7.35;;
37859;SDS011;23698;52.014;5.190;2023-03-26T02:27:07;50.67;;;7.90;;
37859;SDS011;23698;52.014;5.190;2023-03-26T02:29:57;40.58;;;6.95;;
37859;SDS011;23698;52.014;5.190;2023-03-26T02:32:43;43.20;;;8.13;;
37859;SDS011;23698;52.014;5.190;2023-03-26T02:35:31;41.05;;;8.25;;
37859;SDS011;23698;52.014;5.190;2023-03-26T02:38:19;39.57;;;7.63;;
37859;SDS011;23698;52.014;5.190;2023-03-26T02:41:09;43.72;;;7.13;;
37859;SDS011;23698;52.014;5.190;2023-03-26T02:44:13;51.15;;;8.02;;
37859;SDS011;23698;52.014;5.190;2023-03-26T02:47:14;52.33;;;9.95;;
37859;SDS011;23698;52.014;5.190;2023-03-26T02:50:10;40.75;;;8.30;;
37859;SDS011;23698;52.014;5.190;2023-03-26T02:53:15;48.97;;;9.27;;
37859;SDS011;23698;52.014;5.190;2023-03-26T02:56:07;47.53;;;7.13;;
37859;SDS011;23698;52.014;5.190;2023-03-26T02:59:02;45.92;;;8.50;;
37859;SDS011;23698;52.014;5.190;2023-03-26T03:01:48;37.83;;;7.97;;
37859;SDS011;23698;52.014;5.190;2023-03-26T03:04:36;49.35;;;8.68;;
37859;SDS011;23698;52.014;5.190;2023-03-26T03:07:22;49.47;;;7.60;;
37859;SDS011;23698;52.014;5.190;2023-03-26T03:10:10;42.20;;;7.20;;
37859;SDS011;23698;52.014;5.190;2023-03-26T03:13:16;38.53;;;8.07;;
37859;SDS011;23698;52.014;5.190;2023-03-26T03:16:03;50.08;;;7.85;;
37859;SDS011;23698;52.014;5.190;2023-03-26T03:18:50;48.72;;;9.10;;
37859;SDS011;23698;52.014;5.190;2023-03-26T03:21:43;45.63;;;8.90;;
37859;SDS011;23698;52.014;5.190;2023-03-26T03:24:30;41.97;;;8.82;;
37859;SDS011;23698;52.014;5.190;2023-03-26T03:27:19;45.08;;;9.02;;
37859;SDS011;23698;52.014;5.190;2023-03-26T03:30:14;52.03;;;9.77;;
37859;SDS011;23698;52.014;5.190;2023-03-26T03:33:04;40.92;;;7.90;;
37859;SDS011;23698;52.014;5.190;2023-03-26T03:35:51;49.70;;;8.82;;
37859;SDS011;23698;52.014;5.190;2023-03-26T03:38:38;51.33;;;8.50;;
37859;SDS011;23698;52.014;5.190;2023-03-26T03:41:27;45.78;;;9.63;;
37859;SDS011;23698;52.014;5.190;2023-03-26T03:44:18;46.47;;;9.15;;
37859;SDS011;23698;52.014;5.190;2023-03-26T03:47:05;52.40;;;9.90;;
37859;SDS011;23698;52.014;5.190;2023-03-26T03:49:51;53.53;;;10.05;;
37859;SDS011;23698;52.014;5.190;2023-03-26T03:52:38;40.90;;;9.95;;
37859;SDS011;23698;52.014;5.190;2023-03-26T03:55:24;41.83;;;8.98;;
37859;SDS011;23698;52.014;5.190;2023-03-26T03:58:11;38.45;;;9.38;;
37859;SDS011;23698;52.014;5.190;2023-03-26T04:01:00;43.88;;;9.65;;
37859;SDS011;23698;52.014;5.190;2023-03-26T04:04:04;47.45;;;9.88;;
37859;SDS011;23698;52.014;5.190;2023-03-26T04:07:13;38.25;;;10.07;;
37859;SDS011;23698;52.014;5.190;2023-03-26T04:10:22;41.83;;;9.10;;
37859;SDS011;23698;52.014;5.190;2023-03-26T04:13:27;37.42;;;9.65;;
37859;SDS011;23698;52.014;5.190;2023-03-26T04:16:33;48.65;;;9.68;;
37859;SDS011;23698;52.014;5.190;2023-03-26T04:19:19;46.97;;;10.60;;
37859;SDS011;23698;52.014;5.190;2023-03-26T04:22:06;50.03;;;10.38;;
37859;SDS011;23698;52.014;5.190;2023-03-26T04:25:00;45.97;;;10.27;;
37859;SDS011;23698;52.014;5.190;2023-03-26T04:28:07;42.30;;;9.75;;
37859;SDS011;23698;52.014;5.190;2023-03-26T04:31:25;42.80;;;9.80;;
37859;SDS011;23698;52.014;5.190;2023-03-26T04:34:19;39.80;;;9.07;;
37859;SDS011;23698;52.014;5.190;2023-03-26T04:37:20;53.58;;;9.55;;
37859;SDS011;23698;52.014;5.190;2023-03-26T04:40:34;41.33;;;8.48;;
37859;SDS011;23698;52.014;5.190;2023-03-26T04:43:39;45.47;;;9.07;;
37859;SDS011;23698;52.014;5.190;2023-03-26T04:46:52;42.72;;;9.02;;
37859;SDS011;23698;52.014;5.190;2023-03-26T04:49:51;55.30;;;9.93;;
37859;SDS011;23698;52.014;5.190;2023-03-26T04:52:38;36.28;;;8.75;;
37859;SDS011;23698;52.014;5.190;2023-03-26T04:55:48;40.85;;;8.93;;
37859;SDS011;23698;52.014;5.190;2023-03-26T04:58:59;40.70;;;8.10;;
37859;SDS011;23698;52.014;5.190;2023-03-26T05:01:49;39.75;;;7.82;;
37859;SDS011;23698;52.014;5.190;2023-03-26T05:04:38;32.17;;;7.20;;
37859;SDS011;23698;52.014;5.190;2023-03-26T05:07:27;44.80;;;7.80;;
37859;SDS011;23698;52.014;5.190;2023-03-26T05:10:15;30.10;;;7.00;;
37859;SDS011;23698;52.014;5.190;2023-03-26T05:13:15;47.55;;;7.43;;
37859;SDS011;23698;52.014;5.190;2023-03-26T05:16:06;39.90;;;7.95;;
37859;SDS011;23698;52.014;5.190;2023-03-26T05:18:57;43.83;;;8.10;;
37859;SDS011;23698;52.014;5.190;2023-03-26T05:21:49;41.63;;;8.18;;
37859;SDS011;23698;52.014;5.190;2023-03-26T05:24:37;31.08;;;6.88;;
37859;SDS011;23698;52.014;5.190;2023-03-26T05:27:24;35.55;;;7.05;;
37859;SDS011;23698;52.014;5.190;2023-03-26T05:30:11;36.50;;;7.95;;
37859;SDS011;23698;52.014;5.190;2023-03-26T05:33:02;42.70;;;8.27;;
37859;SDS011;23698;52.014;5.190;2023-03-26T05:35:58;38.85;;;8.35;;
37859;SDS011;23698;52.014;5.190;2023-03-26T05:38:48;44.58;;;8.95;;
37859;SDS011;23698;52.014;5.190;2023-03-26T05:41:57;53.35;;;9.60;;
37859;SDS011;23698;52.014;5.190;2023-03-26T05:44:54;42.53;;;9.38;;
37859;SDS011;23698;52.014;5.190;2023-03-26T05:47:44;48.55;;;9.93;;
37859;SDS011;23698;52.014;5.190;2023-03-26T05:50:34;38.90;;;8.45;;
37859;SDS011;23698;52.014;5.190;2023-03-26T05:53:21;39.50;;;8.68;;
37859;SDS011;23698;52.014;5.190;2023-03-26T05:56:27;34.88;;;8.05;;
37859;SDS011;23698;52.014;5.190;2023-03-26T05:59:47;41.85;;;8.52;;
37859;SDS011;23698;52.014;5.190;2023-03-26T06:02:52;56.40;;;8.90;;
37859;SDS011;23698;52.014;5.190;2023-03-26T06:05:44;39.30;;;8.60;;
37859;SDS011;23698;52.014;5.190;2023-03-26T06:08:36;46.08;;;8.95;;
37859;SDS011;23698;52.014;5.190;2023-03-26T06:11:22;45.55;;;8.60;;
37859;SDS011;23698;52.014;5.190;2023-03-26T06:14:09;53.85;;;9.10;;
37859;SDS011;23698;52.014;5.190;2023-03-26T06:17:03;49.92;;;9.75;;
37859;SDS011;23698;52.014;5.190;2023-03-26T06:20:09;46.78;;;9.35;;
37859;SDS011;23698;52.014;5.190;2023-03-26T06:23:00;38.55;;;8.05;;
37859;SDS011;23698;52.014;5.190;2023-03-26T06:26:15;43.28;;;9.45;;
37859;SDS011;23698;52.014;5.190;2023-03-26T06:29:13;45.55;;;8.43;;
37859;SDS011;23698;52.014;5.190;2023-03-26T06:32:11;47.92;;;8.93;;
37859;SDS011;23698;52.014;5.190;2023-03-26T06:35:08;45.10;;;9.93;;
37859;SDS011;23698;52.014;5.190;2023-03-26T06:37:55;56.00;;;11.45;;
37859;SDS011;23698;52.014;5.190;2023-03-26T06:40:42;48.75;;;9.70;;
37859;SDS011;23698;52.014;5.190;2023-03-26T06:43:48;38.92;;;8.60;;
37859;SDS011;23698;52.014;5.190;2023-03-26T06:46:54;34.42;;;7.82;;
37859;SDS011;23698;52.014;5.190;2023-03-26T06:50:04;38.47;;;8.73;;
37859;SDS011;23698;52.014;5.190;2023-03-26T06:52:56;43.30;;;8.35;;
37859;SDS011;23698;52.014;5.190;2023-03-26T06:55:59;40.47;;;6.75;;
37859;SDS011;23698;52.014;5.190;2023-03-26T06:59:04;44.00;;;7.18;;
37859;SDS011;23698;52.014;5.190;2023-03-26T07:02:09;39.85;;;6.82;;
37859;SDS011;23698;52.014;5.190;2023-03-26T07:05:20;37.75;;;7.35;;
37859;SDS011;23698;52.014;5.190;2023-03-26T07:08:36;41.55;;;7.30;;
37859;SDS011;23698;52.014;5.190;2023-03-26T07:11:52;44.65;;;6.40;;
37859;SDS011;23698;52.014;5.190;2023-03-26T07:14:44;34.42;;;6.95;;
37859;SDS011;23698;52.014;5.190;2023-03-26T07:17:43;33.00;;;7.20;;
37859;SDS011;23698;52.014;5.190;2023-03-26T07:20:41;35.08;;;5.97;;
37859;SDS011;23698;52.014;5.190;2023-03-26T07:23:29;39.60;;;7.10;;
37859;SDS011;23698;52.014;5.190;2023-03-26T07:26:37;26.85;;;5.72;;
37859;SDS011;23698;52.014;5.190;2023-03-26T07:29:38;33.85;;;5.40;;
37859;SDS011;23698;52.014;5.190;2023-03-26T07:32:52;27.27;;;5.53;;
37859;SDS011;23698;52.014;5.190;2023-03-26T07:36:07;35.72;;;6.30;;
37859;SDS011;23698;52.014;5.190;2023-03-26T07:39:33;32.75;;;6.93;;
37859;SDS011;23698;52.014;5.190;2023-03-26T07:42:44;34.13;;;5.82;;
37859;SDS011;23698;52.014;5.190;2023-03-26T07:46:01;36.97;;;6.03;;
37859;SDS011;23698;52.014;5.190;2023-03-26T07:49:02;29.50;;;5.22;;
37859;SDS011;23698;52.014;5.190;2023-03-26T07:52:10;39.53;;;8.75;;
37859;SDS011;23698;52.014;5.190;2023-03-26T07:55:20;37.45;;;8.40;;
37859;SDS011;23698;52.014;5.190;2023-03-26T07:58:31;30.05;;;6.15;;
37859;SDS011;23698;52.014;5.190;2023-03-26T08:01:51;35.55;;;5.53;;
37859;SDS011;23698;52.014;5.190;2023-03-26T08:05:00;30.40;;;5.47;;
37859;SDS011;23698;52.014;5.190;2023-03-26T08:08:25;31.13;;;6.47;;
37859;SDS011;23698;52.014;5.190;2023-03-26T08:11:37;41.15;;;6.18;;
37859;SDS011;23698;52.014;5.190;2023-03-26T08:14:36;24.42;;;5.40;;
37859;SDS011;23698;52.014;5.190;2023-03-26T08:17:34;28.77;;;5.20;;
37859;SDS011;23698;52.014;5.190;2023-03-26T08:20:26;36.30;;;5.25;;
37859;SDS011;23698;52.014;5.190;2023-03-26T08:23:21;33.67;;;5.60;;
37859;SDS011;23698;52.014;5.190;2023-03-26T08:26:18;33.17;;;4.78;;
37859;SDS011;23698;52.014;5.190;2023-03-26T08:29:17;37.65;;;5.65;;
37859;SDS011;23698;52.014;5.190;2023-03-26T08:32:10;21.42;;;5.40;;
37859;SDS011;23698;52.014;5.190;2023-03-26T08:35:01;33.28;;;4.95;;
37859;SDS011;23698;52.014;5.190;2023-03-26T08:37:49;29.98;;;8.43;;
37859;SDS011;23698;52.014;5.190;2023-03-26T08:47:51;24.95;;;5.03;;
37859;SDS011;23698;52.014;5.190;2023-03-26T08:51:09;30.45;;;6.75;;
37859;SDS011;23698;52.014;5.190;2023-03-26T08:54:13;27.70;;;6.25;;
37859;SDS011;23698;52.014;5.190;2023-03-26T08:57:29;33.58;;;6.05;;
37859;SDS011;23698;52.014;5.190;2023-03-26T09:00:36;25.58;;;5.93;;
37859;SDS011;23698;52.014;5.190;2023-03-26T09:03:34;28.75;;;5.18;;
37859;SDS011;23698;52.014;5.190;2023-03-26T09:10:05;31.17;;;5.65;;
37859;SDS011;23698;52.014;5.190;2023-03-26T09:13:32;32.67;;;5.63;;
37859;SDS011;23698;52.014;5.190;2023-03-26T09:17:04;24.27;;;5.13;;
37859;SDS011;23698;52.014;5.190;2023-03-26T09:27:35;22.65;;;5.97;;
37859;SDS011;23698;52.014;5.190;2023-03-26T09:33:49;24.00;;;6.55;;
37859;SDS011;23698;52.014;5.190;2023-03-26T09:36:51;27.90;;;6.10;;
37859;SDS011;23698;52.014;5.190;2023-03-26T09:39:44;23.80;;;6.28;;
37859;SDS011;23698;52.014;5.190;2023-03-26T09:42:42;26.13;;;5.22;;
37859;SDS011;23698;52.014;5.190;2023-03-26T09:58:27;19.27;;;6.30;;
37859;SDS011;23698;52.014;5.190;2023-03-26T10:01:29;26.55;;;5.90;;
37859;SDS011;23698;52.014;5.190;2023-03-26T10:04:34;21.63;;;5.22;;
37859;SDS011;23698;52.014;5.190;2023-03-26T10:07:55;17.48;;;5.97;;
37859;SDS011;23698;52.014;5.190;2023-03-26T10:10:59;24.42;;;5.78;;
37859;SDS011;23698;52.014;5.190;2023-03-26T10:13:54;21.13;;;6.65;;
37859;SDS011;23698;52.014;5.190;2023-03-26T10:16:51;22.20;;;6.75;;
37859;SDS011;23698;52.014;5.190;2023-03-26T10:19:48;21.10;;;7.47;;
37859;SDS011;23698;52.014;5.190;2023-03-26T10:22:46;24.70;;;6.57;;
37859;SDS011;23698;52.014;5.190;2023-03-26T10:25:44;18.27;;;6.75;;
37859;SDS011;23698;52.014;5.190;2023-03-26T10:28:48;21.95;;;6.03;;
37859;SDS011;23698;52.014;5.190;2023-03-26T10:31:51;16.00;;;5.95;;
37859;SDS011;23698;52.014;5.190;2023-03-26T10:34:57;21.73;;;5.30;;
37859;SDS011;23698;52.014;5.190;2023-03-26T10:40:53;16.95;;;4.25;;
37859;SDS011;23698;52.014;5.190;2023-03-26T10:43:47;13.18;;;3.97;;
37859;SDS011;23698;52.014;5.190;2023-03-26T10:47:04;16.10;;;5.53;;
37859;SDS011;23698;52.014;5.190;2023-03-26T10:50:10;14.25;;;5.18;;
37859;SDS011;23698;52.014;5.190;2023-03-26T10:53:08;21.10;;;7.53;;
37859;SDS011;23698;52.014;5.190;2023-03-26T10:56:08;25.58;;;11.63;;
37859;SDS011;23698;52.014;5.190;2023-03-26T10:59:04;31.30;;;11.45;;
37859;SDS011;23698;52.014;5.190;2023-03-26T11:01:55;31.08;;;11.10;;
37859;SDS011;23698;52.014;5.190;2023-03-26T11:04:51;29.75;;;10.38;;
37859;SDS011;23698;52.014;5.190;2023-03-26T11:07:47;20.33;;;9.75;;
37859;SDS011;23698;52.014;5.190;2023-03-26T11:10:43;25.35;;;11.10;;
37859;SDS011;23698;52.014;5.190;2023-03-26T11:13:44;27.85;;;12.93;;
37859;SDS011;23698;52.014;5.190;2023-03-26T11:16:43;20.52;;;9.45;;
37859;SDS011;23698;52.014;5.190;2023-03-26T11:19:39;18.52;;;7.53;;
37859;SDS011;23698;52.014;5.190;2023-03-26T11:22:37;16.98;;;5.72;;
37859;SDS011;23698;52.014;5.190;2023-03-26T11:25:40;12.90;;;6.43;;
37859;SDS011;23698;52.014;5.190;2023-03-26T11:32:12;23.13;;;8.70;;
37859;SDS011;23698;52.014;5.190;2023-03-26T11:35:05;22.42;;;6.20;;
37859;SDS011;23698;52.014;5.190;2023-03-26T11:38:01;33.40;;;7.25;;
37859;SDS011;23698;52.014;5.190;2023-03-26T11:40:51;26.42;;;5.40;;
37859;SDS011;23698;52.014;5.190;2023-03-26T11:44:17;23.90;;;4.88;;
37859;SDS011;23698;52.014;5.190;2023-03-26T11:47:07;26.10;;;5.25;;
37859;SDS011;23698;52.014;5.190;2023-03-26T11:49:57;22.10;;;5.70;;
37859;SDS011;23698;52.014;5.190;2023-03-26T11:52:46;21.67;;;5.73;;
37859;SDS011;23698;52.014;5.190;2023-03-26T11:55:33;23.98;;;5.72;;
37859;SDS011;23698;52.014;5.190;2023-03-26T11:58:23;27.30;;;6.18;;
37859;SDS011;23698;52.014;5.190;2023-03-26T12:01:24;25.60;;;6.50;;
37859;SDS011;23698;52.014;5.190;2023-03-26T12:04:15;19.52;;;5.68;;
37859;SDS011;23698;52.014;5.190;2023-03-26T12:07:05;21.55;;;5.25;;
37859;SDS011;23698;52.014;5.190;2023-03-26T12:09:56;28.05;;;6.03;;
37859;SDS011;23698;52.014;5.190;2023-03-26T12:13:05;17.73;;;6.15;;
37859;SDS011;23698;52.014;5.190;2023-03-26T12:16:12;18.27;;;5.75;;
37859;SDS011;23698;52.014;5.190;2023-03-26T12:19:03;23.58;;;5.40;;
37859;SDS011;23698;52.014;5.190;2023-03-26T12:21:52;16.80;;;5.68;;
37859;SDS011;23698;52.014;5.190;2023-03-26T12:24:38;21.92;;;5.25;;
37859;SDS011;23698;52.014;5.190;2023-03-26T12:27:25;17.83;;;5.00;;
37859;SDS011;23698;52.014;5.190;2023-03-26T12:30:19;16.53;;;6.00;;
37859;SDS011;23698;52.014;5.190;2023-03-26T12:33:12;21.90;;;5.15;;
37859;SDS011;23698;52.014;5.190;2023-03-26T12:36:16;21.98;;;4.63;;
37859;SDS011;23698;52.014;5.190;2023-03-26T12:42:39;18.52;;;4.78;;
37859;SDS011;23698;52.014;5.190;2023-03-26T12:45:47;20.58;;;4.18;;
37859;SDS011;23698;52.014;5.190;2023-03-26T12:48:57;27.58;;;5.03;;
37859;SDS011;23698;52.014;5.190;2023-03-26T12:51:51;20.85;;;4.53;;
37859;SDS011;23698;52.014;5.190;2023-03-26T12:54:42;20.00;;;4.03;;
37859;SDS011;23698;52.014;5.190;2023-03-26T12:57:36;18.80;;;3.47;;
37859;SDS011;23698;52.014;5.190;2023-03-26T13:00:39;15.18;;;3.75;;
37859;SDS011;23698;52.014;5.190;2023-03-26T13:03:36;22.77;;;3.83;;
37859;SDS011;23698;52.014;5.190;2023-03-26T13:06:30;20.42;;;4.30;;
37859;SDS011;23698;52.014;5.190;2023-03-26T13:13:10;17.17;;;4.18;;
37859;SDS011;23698;52.014;5.190;2023-03-26T13:16:21;18.30;;;3.55;;
37859;SDS011;23698;52.014;5.190;2023-03-26T13:19:16;13.55;;;3.38;;
37859;SDS011;23698;52.014;5.190;2023-03-26T13:22:09;18.63;;;4.05;;
37859;SDS011;23698;52.014;5.190;2023-03-26T13:25:08;16.33;;;3.17;;
37859;SDS011;23698;52.014;5.190;2023-03-26T13:28:10;14.43;;;3.80;;
37859;SDS011;23698;52.014;5.190;2023-03-26T13:31:06;17.88;;;2.75;;
37859;SDS011;23698;52.014;5.190;2023-03-26T13:34:02;17.75;;;3.05;;
37859;SDS011;23698;52.014;5.190;2023-03-26T13:37:01;15.52;;;2.28;;
37859;SDS011;23698;52.014;5.190;2023-03-26T13:40:00;16.25;;;3.00;;
37859;SDS011;23698;52.014;5.190;2023-03-26T13:43:03;12.25;;;1.80;;
37859;SDS011;23698;52.014;5.190;2023-03-26T13:45:59;11.88;;;2.35;;
37859;SDS011;23698;52.014;5.190;2023-03-26T13:48:56;13.73;;;3.95;;
37859;SDS011;23698;52.014;5.190;2023-03-26T13:51:46;18.35;;;3.00;;
37859;SDS011;23698;52.014;5.190;2023-03-26T13:54:40;17.65;;;4.43;;
37859;SDS011;23698;52.014;5.190;2023-03-26T13:57:32;13.50;;;1.85;;
37859;SDS011;23698;52.014;5.190;2023-03-26T14:00:24;11.50;;;2.10;;
37859;SDS011;23698;52.014;5.190;2023-03-26T14:03:17;8.40;;;2.25;;
37859;SDS011;23698;52.014;5.190;2023-03-26T14:06:23;9.73;;;2.08;;
37859;SDS011;23698;52.014;5.190;2023-03-26T14:09:21;8.70;;;1.50;;
37859;SDS011;23698;52.014;5.190;2023-03-26T14:12:20;11.27;;;2.20;;
37859;SDS011;23698;52.014;5.190;2023-03-26T14:15:15;12.52;;;2.20;;
37859;SDS011;23698;52.014;5.190;2023-03-26T14:18:09;13.30;;;3.05;;
37859;SDS011;23698;52.014;5.190;2023-03-26T14:21:12;8.20;;;1.98;;
37859;SDS011;23698;52.014;5.190;2023-03-26T14:24:21;11.25;;;1.90;;
37859;SDS011;23698;52.014;5.190;2023-03-26T14:33:57;12.45;;;2.20;;
37859;SDS011;23698;52.014;5.190;2023-03-26T14:37:01;17.33;;;3.00;;
37859;SDS011;23698;52.014;5.190;2023-03-26T14:40:26;9.65;;;1.60;;
37859;SDS011;23698;52.014;5.190;2023-03-26T14:43:20;12.95;;;2.30;;
37859;SDS011;23698;52.014;5.190;2023-03-26T14:46:28;11.57;;;1.77;;
37859;SDS011;23698;52.014;5.190;2023-03-26T14:49:42;7.22;;;2.00;;
37859;SDS011;23698;52.014;5.190;2023-03-26T14:52:41;13.73;;;1.90;;
37859;SDS011;23698;52.014;5.190;2023-03-26T15:16:27;15.95;;;3.83;;
37859;SDS011;23698;52.014;5.190;2023-03-26T15:19:36;8.43;;;2.50;;
37859;SDS011;23698;52.014;5.190;2023-03-26T15:22:43;15.07;;;2.25;;
37859;SDS011;23698;52.014;5.190;2023-03-26T15:26:02;11.05;;;2.28;;
37859;SDS011;23698;52.014;5.190;2023-03-26T15:29:17;8.10;;;1.48;;
37859;SDS011;23698;52.014;5.190;2023-03-26T15:39:29;12.23;;;1.67;;
37859;SDS011;23698;52.014;5.190;2023-03-26T15:42:46;6.97;;;1.92;;
37859;SDS011;23698;52.014;5.190;2023-03-26T15:45:40;11.27;;;1.75;;
37859;SDS011;23698;52.014;5.190;2023-03-26T15:48:35;6.30;;;1.70;;
37859;SDS011;23698;52.014;5.190;2023-03-26T15:51:44;9.88;;;1.92;;
37859;SDS011;23698;52.014;5.190;2023-03-26T15:54:46;11.65;;;1.85;;
37859;SDS011;23698;52.014;5.190;2023-03-26T15:57:39;10.65;;;1.85;;
37859;SDS011;23698;52.014;5.190;2023-03-26T16:00:32;11.25;;;1.88;;
37859;SDS011;23698;52.014;5.190;2023-03-26T16:03:24;10.88;;;2.00;;
37859;SDS011;23698;52.014;5.190;2023-03-26T16:06:24;8.60;;;1.40;;
37859;SDS011;23698;52.014;5.190;2023-03-26T16:09:19;11.20;;;1.37;;
37859;SDS011;23698;52.014;5.190;2023-03-26T16:12:28;11.48;;;1.73;;
37859;SDS011;23698;52.014;5.190;2023-03-26T16:15:24;10.95;;;2.22;;
37859;SDS011;23698;52.014;5.190;2023-03-26T16:24:29;8.18;;;1.70;;
37859;SDS011;23698;52.014;5.190;2023-03-26T16:30:26;13.73;;;1.70;;
37859;SDS011;23698;52.014;5.190;2023-03-26T16:33:15;15.90;;;1.70;;
37859;SDS011;23698;52.014;5.190;2023-03-26T16:36:08;9.82;;;1.60;;
37859;SDS011;23698;52.014;5.190;2023-03-26T16:39:17;9.75;;;1.70;;
37859;SDS011;23698;52.014;5.190;2023-03-26T16:42:21;8.93;;;1.58;;
37859;SDS011;23698;52.014;5.190;2023-03-26T16:45:18;11.55;;;1.80;;
37859;SDS011;23698;52.014;5.190;2023-03-26T16:48:15;9.65;;;2.03;;
37859;SDS011;23698;52.014;5.190;2023-03-26T16:51:09;6.82;;;1.40;;
37859;SDS011;23698;52.014;5.190;2023-03-26T16:54:03;8.45;;;1.50;;
37859;SDS011;23698;52.014;5.190;2023-03-26T16:56:58;9.30;;;1.58;;
37859;SDS011;23698;52.014;5.190;2023-03-26T17:03:16;12.60;;;2.05;;
37859;SDS011;23698;52.014;5.190;2023-03-26T17:06:19;11.50;;;1.55;;
37859;SDS011;23698;52.014;5.190;2023-03-26T17:09:13;8.35;;;1.83;;
37859;SDS011;23698;52.014;5.190;2023-03-26T17:12:13;11.57;;;1.90;;
37859;SDS011;23698;52.014;5.190;2023-03-26T17:15:11;12.02;;;1.45;;
37859;SDS011;23698;52.014;5.190;2023-03-26T17:21:14;7.32;;;1.50;;
37859;SDS011;23698;52.014;5.190;2023-03-26T17:24:06;7.97;;;1.67;;
37859;SDS011;23698;52.014;5.190;2023-03-26T17:27:07;10.00;;;1.38;;
37859;SDS011;23698;52.014;5.190;2023-03-26T17:33:21;8.77;;;1.60;;
37859;SDS011;23698;52.014;5.190;2023-03-26T17:36:19;6.60;;;1.40;;
37859;SDS011;23698;52.014;5.190;2023-03-26T17:39:16;9.00;;;1.30;;
37859;SDS011;23698;52.014;5.190;2023-03-26T17:42:16;9.13;;;1.23;;
37859;SDS011;23698;52.014;5.190;2023-03-26T17:45:06;14.65;;;1.55;;
37859;SDS011;23698;52.014;5.190;2023-03-26T17:48:01;12.07;;;2.13;;
37859;SDS011;23698;52.014;5.190;2023-03-26T17:50:56;9.85;;;1.75;;
37859;SDS011;23698;52.014;5.190;2023-03-26T17:53:47;4.55;;;1.52;;
37859;SDS011;23698;52.014;5.190;2023-03-26T17:56:37;7.07;;;1.80;;
37859;SDS011;23698;52.014;5.190;2023-03-26T17:59:25;9.57;;;1.50;;
37859;SDS011;23698;52.014;5.190;2023-03-26T18:02:12;13.45;;;1.75;;
37859;SDS011;23698;52.014;5.190;2023-03-26T18:05:02;8.33;;;1.60;;
37859;SDS011;23698;52.014;5.190;2023-03-26T18:07:58;6.47;;;1.40;;
37859;SDS011;23698;52.014;5.190;2023-03-26T18:14:17;8.18;;;1.30;;
37859;SDS011;23698;52.014;5.190;2023-03-26T18:17:21;6.00;;;1.38;;
37859;SDS011;23698;52.014;5.190;2023-03-26T18:20:17;9.73;;;1.10;;
37859;SDS011;23698;52.014;5.190;2023-03-26T18:23:07;5.80;;;1.25;;
37859;SDS011;23698;52.014;5.190;2023-03-26T18:25:56;10.60;;;1.58;;
37859;SDS011;23698;52.014;5.190;2023-03-26T18:28:48;6.18;;;1.33;;
37859;SDS011;23698;52.014;5.190;2023-03-26T18:31:37;7.05;;;1.00;;
37859;SDS011;23698;52.014;5.190;2023-03-26T18:34:27;17.17;;;1.60;;
37859;SDS011;23698;52.014;5.190;2023-03-26T18:37:17;5.05;;;1.50;;
37859;SDS011;23698;52.014;5.190;2023-03-26T18:40:07;8.73;;;1.38;;
37859;SDS011;23698;52.014;5.190;2023-03-26T18:42:56;6.40;;;1.38;;
37859;SDS011;23698;52.014;5.190;2023-03-26T18:45:47;7.63;;;1.30;;
37859;SDS011;23698;52.014;5.190;2023-03-26T18:48:37;14.13;;;1.48;;
37859;SDS011;23698;52.014;5.190;2023-03-26T18:51:26;8.15;;;1.25;;
37859;SDS011;23698;52.014;5.190;2023-03-26T18:54:16;7.40;;;1.17;;
37859;SDS011;23698;52.014;5.190;2023-03-26T18:57:08;7.75;;;1.63;;
37859;SDS011;23698;52.014;5.190;2023-03-26T19:00:10;7.85;;;1.35;;
37859;SDS011;23698;52.014;5.190;2023-03-26T19:03:15;8.30;;;1.40;;
37859;SDS011;23698;52.014;5.190;2023-03-26T19:06:06;6.25;;;1.40;;
37859;SDS011;23698;52.014;5.190;2023-03-26T19:08:54;10.25;;;1.75;;
37859;SDS011;23698;52.014;5.190;2023-03-26T19:11:42;8.25;;;1.63;;
37859;SDS011;23698;52.014;5.190;2023-03-26T19:14:29;13.13;;;1.50;;
37859;SDS011;23698;52.014;5.190;2023-03-26T19:17:21;7.57;;;1.70;;